Terminal Aerodrome Forecast
Issued by NWS

Home | Current Version | Previous Version | Text Only | Print | Product List | Glossary Off
Versions: 1 2 3 4 5 6 7 8 9 10 11 12 13 14 15 16 17 18 19 20

000
FTUS43 KUNR 210824 AAB
TAFGCC
TAF AMD
KGCC 210824Z 2108/2206 36012KT P6SM SCT007 BKN020
      TEMPO 2108/2109 3SM -SN BR BKN007
     FM211400 35008KT P6SM OVC030
     FM211800 25006KT P6SM BKN250
     FM220200 18010KT P6SM BKN200=

USA.gov is the U.S. government's official web portal to all federal, state and local government web resources and services.